Terminal Aerodrome Forecast
Issued by NWS

Home | Current Version | Previous Version | Text Only | Print | Product List | Glossary On
Versions: 1 2 3 4 5 6 7 8 9 10 11 12 13 14 15 16 17 18 19 20 21 22 23
000
FTUS45 KPSR 261700
TAFSDL
TAF
KSDL 261722Z 2618/2718 VRB03KT P6SM SCT100 OVC250
     FM262300 VRB03KT P6SM VCSH SCT080 BKN120 OVC150
     FM270200 VRB03KT P6SM -SHRA SCT060 OVC080
     FM270700 07004KT P6SM VCSH SCT040 OVC050
     FM271100 VRB03KT P6SM SCT040 OVC050=

USA.gov is the U.S. government's official web portal to all federal, state and local government web resources and services.